Time;durP1;ratioP1;P1;durP2;ratioP2;P2;SDS_P1;SDS_P2;PMS_P1;PMS_P2;Temp;Humidity;BMP_temperature;BMP_pressure;BME280_temperature;BME280_humidity;BME280_pressure;Samples;Min_cycle;Max_cycle;Signal;HPM_P1;HPM_P2
2021/08/04 00:00:59;;;;;;;0.10;0.10;;;15.40;99.90;;;;;;4974724;28;20034;-94
2021/08/04 00:03:25;;;;;;;1.50;0.30;;;15.50;99.90;;;;;;4987721;28;20030;-94
2021/08/04 00:05:51;;;;;;;0.43;0.33;;;15.60;99.90;;;;;;4984931;28;20026;-94
2021/08/04 00:08:17;;;;;;;0.73;0.73;;;15.60;99.90;;;;;;4990959;28;20085;-94
2021/08/04 00:10:44;;;;;;;0.20;0.20;;;15.60;99.90;;;;;;4986147;28;20050;-94
2021/08/04 00:13:10;;;;;;;0.25;0.25;;;15.60;99.90;;;;;;4967815;28;20077;-94
2021/08/04 00:15:36;;;;;;;1.40;0.47;;;15.60;99.90;;;;;;4974852;28;20497;-94
2021/08/04 00:18:02;;;;;;;1.10;1.00;;;15.50;99.90;;;;;;4964490;28;20126;-93
2021/08/04 00:20:28;;;;;;;0.43;0.40;;;15.50;99.90;;;;;;4956219;28;20093;-94
2021/08/04 00:22:54;;;;;;;0.90;0.47;;;15.50;99.90;;;;;;4974459;28;20082;-93
2021/08/04 00:25:19;;;;;;;0.10;0.10;;;15.50;99.90;;;;;;4960333;28;20027;-94
2021/08/04 00:27:45;;;;;;;0.40;0.40;;;15.50;99.90;;;;;;4956807;28;20035;-94
2021/08/04 00:30:12;;;;;;;0.20;0.20;;;15.60;99.90;;;;;;4973986;28;20038;-94
2021/08/04 00:32:37;;;;;;;0.25;0.25;;;15.60;99.90;;;;;;4958179;28;20030;-94
2021/08/04 00:35:04;;;;;;;0.00;0.00;;;15.50;99.90;;;;;;4974895;28;20105;-94
2021/08/04 00:37:30;;;;;;;0.10;0.10;;;15.30;99.90;;;;;;4939454;29;20528;-94
2021/08/04 00:39:55;;;;;;;0.40;0.40;;;15.40;99.90;;;;;;4958042;28;20031;-94
2021/08/04 00:42:21;;;;;;;1.13;0.93;;;15.40;99.90;;;;;;4967883;28;20027;-94
2021/08/04 00:44:47;;;;;;;1.27;1.20;;;15.40;99.90;;;;;;4971135;28;20034;-94
2021/08/04 00:47:14;;;;;;;0.55;0.52;;;15.40;99.90;;;;;;4949153;28;20086;-94
2021/08/04 00:49:40;;;;;;;0.15;0.15;;;15.30;99.90;;;;;;4956493;28;20488;-94
2021/08/04 00:52:06;;;;;;;0.10;0.10;;;15.30;99.90;;;;;;4939193;29;20031;-94
2021/08/04 00:54:32;;;;;;;0.25;0.25;;;15.30;99.90;;;;;;4937931;29;20516;-94
2021/08/04 00:56:58;;;;;;;0.47;0.47;;;15.40;99.90;;;;;;4961877;28;20027;-94
2021/08/04 00:59:24;;;;;;;0.30;0.20;;;15.20;99.90;;;;;;4959610;28;20037;-94
2021/08/04 01:02:16;;;;;;;0.10;0.10;;;15.00;99.90;;;;;;4955676;28;20036;-94
2021/08/04 01:05:21;;;;;;;0.47;0.47;;;14.90;99.90;;;;;;4952024;28;20114;-94
2021/08/04 01:08:08;;;;;;;0.40;0.40;;;14.90;99.90;;;;;;4931060;29;20471;-94
2021/08/04 01:10:43;;;;;;;;;;;14.80;99.90;;;;;;4934989;28;20034;-94
2021/08/04 01:13:26;;;;;;;0.10;0.10;;;14.80;99.90;;;;;;4963012;28;19906;-94
2021/08/04 01:16:23;;;;;;;0.00;0.00;;;14.80;99.90;;;;;;4958006;28;20114;-94
2021/08/04 01:18:58;;;;;;;0.20;0.10;;;14.70;99.90;;;;;;4943124;28;20492;-93
2021/08/04 01:21:47;;;;;;;0.17;0.17;;;14.80;99.90;;;;;;4952333;28;20023;-94
2021/08/04 01:24:33;;;;;;;0.10;0.10;;;14.80;99.90;;;;;;4944616;29;20027;-94
2021/08/04 01:27:00;;;;;;;0.22;0.22;;;14.70;99.90;;;;;;4937486;29;20451;-94
2021/08/04 01:29:26;;;;;;;;;;;14.80;99.90;;;;;;4941278;29;20531;-94
2021/08/04 01:31:58;;;;;;;0.15;0.15;;;14.80;99.90;;;;;;4956681;28;19906;-94
2021/08/04 01:34:25;;;;;;;0.28;0.28;;;14.70;99.90;;;;;;4955491;28;20041;-94
2021/08/04 01:36:52;;;;;;;0.00;0.00;;;14.80;99.90;;;;;;4956399;28;20484;-93
2021/08/04 01:39:19;;;;;;;0.17;0.17;;;14.70;99.90;;;;;;4956624;28;20077;-94
2021/08/04 01:41:47;;;;;;;0.10;0.10;;;14.60;99.90;;;;;;4956630;28;20176;-93
2021/08/04 01:44:14;;;;;;;0.20;0.20;;;14.60;99.90;;;;;;4956700;28;20027;-93
2021/08/04 01:46:41;;;;;;;0.10;0.10;;;14.70;99.90;;;;;;4945537;29;20031;-94
2021/08/04 01:49:07;;;;;;;;;;;14.70;99.90;;;;;;4960594;28;20086;-94
2021/08/04 01:51:33;;;;;;;0.20;0.20;;;14.60;99.90;;;;;;4946116;28;19918;-94
2021/08/04 01:54:00;;;;;;;0.13;0.13;;;14.60;99.90;;;;;;4948742;28;20037;-94
2021/08/04 01:56:26;;;;;;;0.30;0.30;;;14.60;99.90;;;;;;4955905;28;20030;-94
2021/08/04 01:58:52;;;;;;;;;;;14.60;99.90;;;;;;4948215;29;20054;-94
2021/08/04 02:01:18;;;;;;;0.30;0.30;;;14.50;99.90;;;;;;4961794;28;19949;-94
2021/08/04 02:03:44;;;;;;;0.20;0.10;;;14.50;99.90;;;;;;4973174;28;20488;-95
2021/08/04 02:06:38;;;;;;;0.30;0.30;;;14.60;99.90;;;;;;4973864;28;20484;-94
2021/08/04 02:09:15;;;;;;;0.35;0.35;;;14.50;99.90;;;;;;4977395;28;20369;-95
2021/08/04 02:11:52;;;;;;;0.45;0.45;;;14.60;99.90;;;;;;4977436;28;20023;-95
2021/08/04 02:14:17;;;;;;;;;;;14.60;99.90;;;;;;4964611;28;20048;-94
2021/08/04 02:17:08;;;;;;;0.17;0.17;;;14.60;99.90;;;;;;4979968;28;19918;-94
2021/08/04 02:19:44;;;;;;;0.22;0.10;;;14.60;99.90;;;;;;4963432;28;20399;-95
2021/08/04 02:22:47;;;;;;;0.30;0.30;;;14.70;99.90;;;;;;4965024;28;20018;-95
2021/08/04 02:25:50;;;;;;;0.17;0.17;;;14.80;99.90;;;;;;4990909;28;20031;-94
2021/08/04 02:28:21;;;;;;;0.10;0.10;;;14.70;61.50;;;;;;4956844;28;20569;-93
2021/08/04 02:30:49;;;;;;;0.10;0.10;;;14.70;1.00;;;;;;4959514;28;20030;-94
2021/08/04 02:33:15;;;;;;;0.20;0.10;;;14.70;1.00;;;;;;4967316;28;20022;-93
2021/08/04 02:35:42;;;;;;;0.00;0.00;;;14.60;1.00;;;;;;4958671;28;20085;-93
2021/08/04 02:38:07;;;;;;;0.80;0.33;;;14.70;1.00;;;;;;4960480;28;20034;-94
2021/08/04 02:40:33;;;;;;;0.10;0.10;;;14.60;1.70;;;;;;4981344;28;20023;-94
2021/08/04 02:43:01;;;;;;;0.03;0.03;;;14.60;15.70;;;;;;4994060;28;20030;-95
2021/08/04 02:45:28;;;;;;;0.25;0.20;;;14.60;9.70;;;;;;4974117;28;20030;-93
2021/08/04 02:47:54;;;;;;;0.00;0.00;;;14.70;29.50;;;;;;4995649;28;20030;-95
2021/08/04 02:50:21;;;;;;;0.20;0.20;;;14.70;91.90;;;;;;4975097;28;20051;-95
2021/08/04 02:52:48;;;;;;;0.30;0.30;;;14.60;99.90;;;;;;4959957;28;20030;-94
2021/08/04 02:55:13;;;;;;;0.10;0.10;;;14.70;99.90;;;;;;4990169;28;20045;-95
2021/08/04 02:57:39;;;;;;;0.13;0.13;;;14.70;99.90;;;;;;4978435;28;20504;-94
2021/08/04 03:00:06;;;;;;;0.10;0.10;;;14.70;91.20;;;;;;4994565;28;20029;-93
2021/08/04 03:02:33;;;;;;;;;;;14.70;52.30;;;;;;4979592;28;20061;-94
2021/08/04 03:04:58;;;;;;;;;;;14.70;99.90;;;;;;4995680;28;19906;-94
2021/08/04 03:07:24;;;;;;;0.10;0.10;;;14.70;11.40;;;;;;4991575;28;19906;-94
2021/08/04 03:09:50;;;;;;;0.33;0.23;;;14.80;1.00;;;;;;4976366;28;20054;-94
2021/08/04 03:12:15;;;;;;;0.30;0.30;;;14.80;99.90;;;;;;4976217;28;20242;-94
2021/08/04 03:14:41;;;;;;;0.57;0.20;;;14.90;99.90;;;;;;4994794;28;20037;-94
2021/08/04 03:17:07;;;;;;;0.10;0.10;;;14.80;21.50;;;;;;4993275;28;20058;-94
2021/08/04 03:19:33;;;;;;;0.10;0.10;;;14.90;1.00;;;;;;4989421;28;20031;-95
2021/08/04 03:21:59;;;;;;;0.47;0.30;;;15.00;1.00;;;;;;4975913;28;20026;-94
2021/08/04 03:24:24;;;;;;;0.10;0.10;;;14.90;1.00;;;;;;4975890;28;20057;-94
2021/08/04 03:26:51;;;;;;;0.20;0.20;;;14.90;1.00;;;;;;4983739;28;20033;-94
2021/08/04 03:29:18;;;;;;;0.10;0.10;;;15.00;1.00;;;;;;4984897;28;20101;-94
2021/08/04 03:31:44;;;;;;;0.28;0.28;;;15.00;1.00;;;;;;4966380;28;20385;-94
2021/08/04 03:34:10;;;;;;;0.10;0.10;;;14.80;99.90;;;;;;4978464;28;20092;-94
2021/08/04 03:36:36;;;;;;;0.10;0.10;;;14.80;1.00;;;;;;4984379;28;20534;-94
2021/08/04 03:39:02;;;;;;;0.10;0.10;;;14.70;1.00;;;;;;4989289;28;20030;-94
2021/08/04 03:41:28;;;;;;;0.22;0.22;;;14.60;1.00;;;;;;4994921;28;20022;-94
2021/08/04 03:43:54;;;;;;;0.20;0.20;;;14.60;1.00;;;;;;4994212;28;20037;-94
2021/08/04 03:46:20;;;;;;;0.20;0.20;;;14.60;1.00;;;;;;4991852;28;20114;-94
2021/08/04 03:48:45;;;;;;;0.13;0.03;;;14.70;1.00;;;;;;4994260;28;20057;-93
2021/08/04 03:51:11;;;;;;;1.00;0.83;;;14.60;1.00;;;;;;4993930;28;20030;-93
2021/08/04 03:53:37;;;;;;;3.80;0.33;;;14.70;1.00;;;;;;4993773;28;20042;-93
2021/08/04 03:56:03;;;;;;;0.20;0.20;;;14.60;1.00;;;;;;4983702;28;20022;-94
2021/08/04 03:58:29;;;;;;;0.10;0.10;;;14.60;1.00;;;;;;4960772;28;20034;-93
2021/08/04 04:00:55;;;;;;;1.60;0.20;;;14.70;1.00;;;;;;4989578;28;20265;-94
2021/08/04 04:03:21;;;;;;;0.00;0.00;;;14.70;1.00;;;;;;4963210;28;20054;-94
2021/08/04 04:05:46;;;;;;;0.63;0.53;;;14.70;99.90;;;;;;4981548;28;20593;-94
2021/08/04 04:08:12;;;;;;;1.03;0.40;;;14.70;99.90;;;;;;4982845;28;20021;-94
2021/08/04 04:10:38;;;;;;;1.77;0.40;;;14.70;99.90;;;;;;4977944;28;20170;-94
2021/08/04 04:13:05;;;;;;;0.10;0.10;;;14.70;1.00;;;;;;4994073;28;20033;-94
2021/08/04 04:15:30;;;;;;;;;;;14.70;4.50;;;;;;4975063;28;20023;-94
2021/08/04 04:17:56;;;;;;;1.13;0.33;;;14.70;21.50;;;;;;4974151;28;20104;-94
2021/08/04 04:20:22;;;;;;;1.00;0.28;;;14.70;1.00;;;;;;4957951;28;20084;-93
2021/08/04 04:22:48;;;;;;;0.73;0.70;;;14.80;1.00;;;;;;4965805;28;20113;-94
2021/08/04 04:25:15;;;;;;;0.17;0.17;;;14.70;1.00;;;;;;4988856;28;20484;-94
2021/08/04 04:27:43;;;;;;;0.22;0.10;;;14.70;1.00;;;;;;4984360;28;20054;-92
2021/08/04 04:30:11;;;;;;;0.08;0.08;;;14.70;14.40;;;;;;4972117;28;20041;-93
2021/08/04 04:32:36;;;;;;;0.05;0.05;;;14.70;99.90;;;;;;4967198;28;20351;-93
2021/08/04 04:35:04;;;;;;;0.10;0.10;;;14.70;99.90;;;;;;4977273;28;20042;-90
2021/08/04 04:37:30;;;;;;;0.13;0.13;;;14.80;99.90;;;;;;4964810;28;20042;-94
2021/08/04 04:39:56;;;;;;;0.30;0.30;;;14.60;1.00;;;;;;4974341;28;20026;-93
2021/08/04 04:42:22;;;;;;;0.10;0.10;;;14.70;12.10;;;;;;4976354;28;20026;-94
2021/08/04 04:44:48;;;;;;;0.15;0.15;;;14.90;98.00;;;;;;4960137;28;20019;-92
2021/08/04 04:47:14;;;;;;;0.10;0.10;;;14.90;99.90;;;;;;4975537;28;20093;-96
2021/08/04 04:49:40;;;;;;;1.07;0.63;;;14.80;99.90;;;;;;4974896;28;20460;-96
2021/08/04 04:52:06;;;;;;;0.10;0.10;;;14.80;99.90;;;;;;4958777;28;20034;-95
2021/08/04 04:54:32;;;;;;;0.30;0.30;;;14.80;99.90;;;;;;4974620;28;20582;-94
2021/08/04 04:56:58;;;;;;;2.43;0.40;;;14.90;99.90;;;;;;4967956;28;20054;-95
2021/08/04 04:59:24;;;;;;;0.10;0.10;;;14.90;99.90;;;;;;4993521;28;20027;-95
2021/08/04 05:01:50;;;;;;;0.10;0.10;;;14.90;1.00;;;;;;4992043;28;20080;-95
2021/08/04 05:04:16;;;;;;;0.10;0.10;;;15.00;17.80;;;;;;4982106;28;20042;-93
2021/08/04 05:06:42;;;;;;;0.32;0.32;;;15.00;85.80;;;;;;4968969;28;20099;-93
2021/08/04 05:09:08;;;;;;;0.37;0.30;;;15.00;99.90;;;;;;4968350;28;20583;-92
2021/08/04 05:11:34;;;;;;;0.10;0.10;;;15.00;99.90;;;;;;4970327;28;20073;-92
2021/08/04 05:14:00;;;;;;;0.10;0.10;;;15.00;99.90;;;;;;4991207;28;20026;-93
2021/08/04 05:16:25;;;;;;;0.10;0.10;;;15.00;99.90;;;;;;4982350;28;20097;-92
2021/08/04 05:18:52;;;;;;;0.00;0.00;;;15.00;99.90;;;;;;4981599;28;20031;-94
2021/08/04 05:21:18;;;;;;;1.10;0.73;;;14.90;99.90;;;;;;4988122;28;20106;-95
2021/08/04 05:23:44;;;;;;;0.07;0.07;;;14.80;99.90;;;;;;4976414;28;20361;-93
2021/08/04 05:26:09;;;;;;;0.05;0.05;;;14.80;1.00;;;;;;4962450;28;20109;-94
2021/08/04 05:28:35;;;;;;;0.93;0.73;;;15.00;99.90;;;;;;4992780;28;20090;-94
2021/08/04 05:31:01;;;;;;;0.30;0.30;;;15.00;99.90;;;;;;4993089;28;20033;-95
2021/08/04 05:33:27;;;;;;;0.70;0.50;;;15.00;99.90;;;;;;4989603;28;20165;-95
2021/08/04 05:36:00;;;;;;;0.07;0.07;;;15.00;99.90;;;;;;4973413;28;20034;-96
2021/08/04 05:38:25;;;;;;;0.40;0.20;;;15.20;99.90;;;;;;4941369;28;20424;-94
2021/08/04 05:40:51;;;;;;;0.00;0.00;;;14.90;99.90;;;;;;4974796;28;20023;-96
2021/08/04 05:43:17;;;;;;;0.10;0.10;;;14.90;99.90;;;;;;4986545;28;20133;-93
2021/08/04 05:45:43;;;;;;;0.00;0.00;;;14.90;1.00;;;;;;4994052;28;20026;-95
2021/08/04 05:48:09;;;;;;;0.10;0.10;;;15.00;1.00;;;;;;4975910;28;20110;-92
2021/08/04 05:50:34;;;;;;;0.00;0.00;;;15.00;32.00;;;;;;4969641;28;20496;-91
2021/08/04 05:53:02;;;;;;;0.20;0.20;;;15.00;48.60;;;;;;4986387;28;20054;-95
2021/08/04 05:55:38;;;;;;;1.35;0.35;;;15.00;95.60;;;;;;4969911;28;20026;-92
2021/08/04 05:58:03;;;;;;;0.08;0.08;;;15.10;99.90;;;;;;4968358;28;20034;-94
2021/08/04 06:00:29;;;;;;;0.07;0.07;;;15.20;99.90;;;;;;4987377;28;20085;-94
2021/08/04 06:02:55;;;;;;;0.33;0.33;;;15.50;99.90;;;;;;4988578;28;20033;-95
2021/08/04 06:05:21;;;;;;;0.10;0.10;;;15.10;99.90;;;;;;4980262;28;20025;-94
2021/08/04 06:07:46;;;;;;;0.27;0.27;;;15.10;99.90;;;;;;4981787;28;20037;-93
2021/08/04 06:10:12;;;;;;;0.03;0.03;;;15.10;99.90;;;;;;4978942;28;20041;-93
2021/08/04 06:12:39;;;;;;;0.10;0.10;;;15.00;99.90;;;;;;4977253;28;20027;-92
2021/08/04 06:15:05;;;;;;;0.20;0.20;;;15.00;99.90;;;;;;4954787;28;20061;-88
2021/08/04 06:17:31;;;;;;;0.15;0.10;;;15.10;99.90;;;;;;4962182;28;20066;-89
2021/08/04 06:19:57;;;;;;;0.53;0.20;;;15.20;99.90;;;;;;4948209;28;20036;-89
2021/08/04 06:22:22;;;;;;;0.10;0.10;;;15.20;99.90;;;;;;4952721;28;20142;-89
2021/08/04 06:24:49;;;;;;;0.10;0.10;;;15.20;80.00;;;;;;4961357;28;20023;-88
2021/08/04 06:27:15;;;;;;;0.10;0.10;;;15.30;99.90;;;;;;4961136;28;20023;-88
2021/08/04 06:29:41;;;;;;;0.17;0.17;;;15.30;99.90;;;;;;4950871;29;20872;-88
2021/08/04 06:32:07;;;;;;;0.00;0.00;;;15.20;99.90;;;;;;4951016;29;20126;-88
2021/08/04 06:34:33;;;;;;;0.10;0.10;;;15.20;48.30;;;;;;4952209;29;20512;-88
2021/08/04 06:36:58;;;;;;;0.30;0.30;;;15.20;68.80;;;;;;4951970;29;20038;-87
2021/08/04 06:39:24;;;;;;;0.00;0.00;;;15.20;99.90;;;;;;4950957;29;20030;-88
2021/08/04 06:41:50;;;;;;;0.10;0.10;;;15.30;1.00;;;;;;4952045;29;20015;-88
2021/08/04 06:44:16;;;;;;;0.10;0.10;;;15.30;99.90;;;;;;4952231;29;20031;-88
2021/08/04 06:46:42;;;;;;;0.73;0.43;;;15.40;99.90;;;;;;4952034;29;20127;-88
2021/08/04 06:49:07;;;;;;;0.10;0.10;;;15.50;1.00;;;;;;4950735;29;20027;-88
2021/08/04 06:51:34;;;;;;;0.17;0.17;;;15.50;99.90;;;;;;4934664;29;20078;-88
2021/08/04 06:54:00;;;;;;;0.13;0.10;;;15.50;99.90;;;;;;4954781;28;20015;-88
2021/08/04 06:56:26;;;;;;;0.00;0.00;;;15.40;99.90;;;;;;4954191;29;20035;-88
2021/08/04 06:58:52;;;;;;;0.07;0.07;;;15.40;99.90;;;;;;4955488;29;20079;-88
2021/08/04 07:01:18;;;;;;;0.17;0.10;;;15.60;99.90;;;;;;4954372;29;20506;-88
2021/08/04 07:03:44;;;;;;;0.00;0.00;;;15.80;42.90;;;;;;4955895;29;20452;-88
2021/08/04 07:06:10;;;;;;;0.10;0.10;;;16.00;1.00;;;;;;4955076;29;20035;-88
2021/08/04 07:08:36;;;;;;;0.33;0.33;;;16.10;1.00;;;;;;4955756;29;20786;-88
2021/08/04 07:11:02;;;;;;;0.25;0.25;;;16.10;1.00;;;;;;4938008;29;20027;-88
2021/08/04 07:13:28;;;;;;;0.85;0.52;;;16.20;99.90;;;;;;4955676;29;20032;-88
2021/08/04 07:15:54;;;;;;;0.30;0.30;;;16.00;99.90;;;;;;4944772;29;20031;-88
2021/08/04 07:18:20;;;;;;;0.07;0.07;;;15.90;99.90;;;;;;4936394;29;20560;-88
2021/08/04 07:20:47;;;;;;;0.25;0.20;;;16.30;99.90;;;;;;4936566;29;20016;-88
2021/08/04 07:23:13;;;;;;;0.40;0.40;;;16.50;99.90;;;;;;4936253;29;20103;-88
2021/08/04 07:25:39;;;;;;;0.10;0.10;;;16.50;99.90;;;;;;4936516;29;20028;-88
2021/08/04 07:28:05;;;;;;;0.10;0.10;;;16.80;99.90;;;;;;4936164;29;20028;-88
2021/08/04 07:30:31;;;;;;;0.20;0.20;;;17.00;99.90;;;;;;4935938;29;20083;-88
2021/08/04 07:32:57;;;;;;;0.10;0.10;;;17.00;99.90;;;;;;4936425;29;20055;-88
2021/08/04 07:35:23;;;;;;;0.10;0.10;;;16.90;99.90;;;;;;4918960;29;20034;-88
2021/08/04 07:37:49;;;;;;;0.87;0.23;;;17.00;99.90;;;;;;4936363;29;20036;-88
2021/08/04 07:40:17;;;;;;;0.20;0.20;;;17.50;99.90;;;;;;4936143;29;20031;-88
2021/08/04 07:42:43;;;;;;;0.10;0.10;;;17.70;99.90;;;;;;4936143;29;20024;-88
2021/08/04 07:45:09;;;;;;;0.00;0.00;;;17.60;99.90;;;;;;4935561;29;20140;-88
2021/08/04 07:47:35;;;;;;;0.10;0.10;;;17.40;99.90;;;;;;4918747;29;20359;-88
2021/08/04 07:50:02;;;;;;;0.30;0.30;;;17.40;99.90;;;;;;4935804;29;20079;-87
2021/08/04 07:52:27;;;;;;;;;;;17.40;99.90;;;;;;4919200;29;20039;-88
2021/08/04 07:54:53;;;;;;;0.00;0.00;;;17.40;99.90;;;;;;4935071;29;19929;-88
2021/08/04 07:57:19;;;;;;;0.10;0.10;;;17.30;99.90;;;;;;4934374;29;20040;-88
2021/08/04 07:59:45;;;;;;;0.30;0.30;;;17.30;99.90;;;;;;4934625;29;20051;-88
2021/08/04 08:02:10;;;;;;;0.00;0.00;;;17.40;99.90;;;;;;4935527;29;20028;-88
2021/08/04 08:04:36;;;;;;;1.60;0.87;;;17.40;99.90;;;;;;4935374;29;20031;-88
2021/08/04 08:07:03;;;;;;;0.20;0.20;;;17.30;99.90;;;;;;4935813;29;20102;-88
2021/08/04 08:09:29;;;;;;;0.00;0.00;;;17.40;99.90;;;;;;4935644;29;20031;-88
2021/08/04 08:11:58;;;;;;;0.50;0.50;;;17.50;99.90;;;;;;4935763;29;20040;-88
2021/08/04 08:14:25;;;;;;;0.00;0.00;;;17.40;99.90;;;;;;4935150;29;20035;-88
2021/08/04 08:16:50;;;;;;;;;;;17.40;99.90;;;;;;4927716;29;20058;-88
2021/08/04 08:19:17;;;;;;;0.00;0.00;;;17.40;99.90;;;;;;4953283;29;19911;-88
2021/08/04 08:21:43;;;;;;;0.20;0.20;;;17.60;99.90;;;;;;4954673;29;20035;-88
2021/08/04 08:24:09;;;;;;;0.00;0.00;;;17.10;99.90;;;;;;4954297;29;20047;-88
2021/08/04 08:26:36;;;;;;;0.10;0.10;;;16.90;99.90;;;;;;4953104;29;20062;-88
2021/08/04 08:29:03;;;;;;;0.00;0.00;;;17.00;99.90;;;;;;4957035;28;20476;-88
2021/08/04 08:31:29;;;;;;;0.82;0.10;;;17.30;99.90;;;;;;4973900;28;20395;-88
2021/08/04 08:33:59;;;;;;;0.17;0.10;;;17.90;99.90;;;;;;4956587;28;20117;-89
2021/08/04 08:36:26;;;;;;;0.00;0.00;;;18.80;99.90;;;;;;4973390;28;20282;-88
2021/08/04 08:38:51;;;;;;;;;;;18.60;99.90;;;;;;4973888;28;20041;-88
2021/08/04 08:41:17;;;;;;;0.17;0.17;;;19.20;99.90;;;;;;4955908;28;20387;-88
2021/08/04 08:43:45;;;;;;;0.00;0.00;;;19.80;99.90;;;;;;4973520;28;20027;-87
2021/08/04 08:46:11;;;;;;;0.00;0.00;;;20.00;99.90;;;;;;4973455;28;20049;-88
2021/08/04 08:48:37;;;;;;;0.10;0.10;;;19.80;99.90;;;;;;4973287;28;20031;-88
2021/08/04 08:51:03;;;;;;;0.73;0.33;;;18.40;99.90;;;;;;4973048;28;20019;-88
2021/08/04 08:53:29;;;;;;;0.17;0.17;;;18.40;99.90;;;;;;4972913;28;20515;-88
2021/08/04 08:55:55;;;;;;;0.00;0.00;;;18.00;99.90;;;;;;4972864;28;20511;-89
2021/08/04 08:58:21;;;;;;;0.25;0.13;;;18.40;99.90;;;;;;4970949;28;20787;-89
2021/08/04 09:00:47;;;;;;;0.00;0.00;;;18.60;99.90;;;;;;4955726;28;20042;-88
2021/08/04 09:03:13;;;;;;;0.00;0.00;;;19.00;99.90;;;;;;4972633;28;20428;-88
2021/08/04 09:05:54;;;;;;;0.00;0.00;;;19.60;99.90;;;;;;4955684;28;20027;-88
2021/08/04 09:08:28;;;;;;;0.00;0.00;;;19.20;99.90;;;;;;4955035;28;20023;-88
2021/08/04 09:10:56;;;;;;;0.10;0.10;;;18.60;99.90;;;;;;4955466;28;20508;-88
2021/08/04 09:13:32;;;;;;;0.00;0.00;;;19.40;99.90;;;;;;4955250;28;20019;-88
2021/08/04 09:16:06;;;;;;;0.00;0.00;;;21.00;99.90;;;;;;4969180;28;20027;-88
2021/08/04 09:18:51;;;;;;;0.00;0.00;;;20.90;99.90;;;;;;4953283;29;20103;-88
2021/08/04 09:21:17;;;;;;;0.00;0.00;;;20.80;99.90;;;;;;4953521;29;20449;-88
2021/08/04 09:23:50;;;;;;;0.00;0.00;;;21.30;99.90;;;;;;4936536;29;20179;-88
2021/08/04 09:26:18;;;;;;;0.00;0.00;;;21.40;99.90;;;;;;4953517;29;20231;-88
2021/08/04 09:29:11;;;;;;;0.00;0.00;;;21.80;99.90;;;;;;4936599;29;20110;-88
2021/08/04 09:31:40;;;;;;;0.00;0.00;;;21.50;99.90;;;;;;4947223;29;20047;-88
2021/08/04 09:34:36;;;;;;;0.00;0.00;;;21.70;99.90;;;;;;4936720;29;20497;-88
2021/08/04 09:37:03;;;;;;;0.00;0.00;;;22.40;99.90;;;;;;4953945;29;20042;-88
2021/08/04 09:39:30;;;;;;;0.00;0.00;;;21.50;99.90;;;;;;4936220;29;20038;-88
2021/08/04 09:41:55;;;;;;;0.00;0.00;;;21.00;99.90;;;;;;4953832;29;20028;-89
2021/08/04 09:44:21;;;;;;;0.10;0.10;;;20.50;99.90;;;;;;4936633;29;20568;-88
2021/08/04 09:46:47;;;;;;;0.10;0.10;;;20.50;99.90;;;;;;4936641;29;20175;-88
2021/08/04 09:49:16;;;;;;;0.00;0.00;;;20.80;99.90;;;;;;4953969;29;20031;-89
2021/08/04 09:51:42;;;;;;;0.00;0.00;;;21.10;99.90;;;;;;4936112;29;20493;-88
2021/08/04 09:54:10;;;;;;;0.10;0.10;;;21.00;99.90;;;;;;4936252;29;20706;-89
2021/08/04 09:56:58;;;;;;;0.00;0.00;;;20.40;99.90;;;;;;4953395;29;20039;-88
2021/08/04 09:59:25;;;;;;;0.00;0.00;;;20.40;99.90;;;;;;4936556;29;20118;-89
2021/08/04 10:01:51;;;;;;;0.00;0.00;;;21.40;99.90;;;;;;4936287;29;20385;-89
2021/08/04 10:04:18;;;;;;;0.00;0.00;;;21.60;99.90;;;;;;4936569;29;20030;-89
2021/08/04 10:06:46;;;;;;;0.05;0.03;;;21.50;99.90;;;;;;4936655;29;20031;-89
2021/08/04 10:09:14;;;;;;;0.00;0.00;;;21.90;99.90;;;;;;4936468;29;20027;-89
2021/08/04 10:11:45;;;;;;;0.10;0.10;;;22.20;99.90;;;;;;4936464;29;20476;-89
2021/08/04 10:14:16;;;;;;;0.10;0.10;;;23.60;99.90;;;;;;4936416;29;20027;-89
2021/08/04 10:16:42;;;;;;;0.00;0.00;;;22.60;99.90;;;;;;4953079;28;20508;-88
2021/08/04 10:19:08;;;;;;;0.05;0.05;;;22.30;99.90;;;;;;4935975;29;20019;-88
2021/08/04 10:21:36;;;;;;;0.20;0.10;;;21.10;99.90;;;;;;4951994;29;20034;-88
2021/08/04 10:24:03;;;;;;;0.00;0.00;;;20.80;99.90;;;;;;4953380;29;20030;-88
2021/08/04 10:26:30;;;;;;;0.10;0.10;;;20.80;99.90;;;;;;4952969;29;20559;-88
2021/08/04 10:28:57;;;;;;;0.00;0.00;;;20.70;99.90;;;;;;4956503;28;20027;-88
2021/08/04 10:31:24;;;;;;;0.45;0.10;;;20.70;99.90;;;;;;4957040;29;20035;-88
2021/08/04 10:33:51;;;;;;;0.00;0.00;;;20.40;99.90;;;;;;4939919;29;20086;-88
2021/08/04 10:36:19;;;;;;;0.00;0.00;;;20.60;99.90;;;;;;4957107;29;20036;-88
2021/08/04 10:38:55;;;;;;;0.25;0.10;;;21.00;99.90;;;;;;4957004;29;20074;-89
2021/08/04 10:41:25;;;;;;;0.40;0.15;;;20.90;99.90;;;;;;4957043;29;20374;-89
2021/08/04 10:43:55;;;;;;;0.00;0.00;;;20.40;99.90;;;;;;4957021;29;20023;-88
2021/08/04 10:46:30;;;;;;;0.00;0.00;;;19.50;99.90;;;;;;4939667;29;20090;-88
2021/08/04 10:49:05;;;;;;;0.00;0.00;;;19.00;99.90;;;;;;4956073;29;20027;-88
2021/08/04 10:51:38;;;;;;;0.15;0.15;;;18.80;99.90;;;;;;4955686;29;20035;-88
2021/08/04 10:54:17;;;;;;;0.17;0.17;;;18.70;99.90;;;;;;4956213;29;20098;-89
2021/08/04 10:56:43;;;;;;;0.00;0.00;;;18.60;99.90;;;;;;4938463;29;20511;-89
2021/08/04 10:59:08;;;;;;;0.00;0.00;;;18.70;99.90;;;;;;4954730;29;20035;-89
2021/08/04 11:02:03;;;;;;;0.10;0.10;;;19.20;99.90;;;;;;4954523;29;20041;-88
2021/08/04 11:04:29;;;;;;;0.10;0.10;;;19.60;99.90;;;;;;4955583;29;20024;-89
2021/08/04 11:07:07;;;;;;;0.00;0.00;;;20.20;99.90;;;;;;4955761;29;20502;-88
2021/08/04 11:09:46;;;;;;;0.00;0.00;;;20.70;99.90;;;;;;4955441;29;20497;-88
2021/08/04 11:12:15;;;;;;;0.20;0.20;;;21.00;99.90;;;;;;4955409;29;20106;-89
2021/08/04 11:14:44;;;;;;;0.00;0.00;;;20.70;99.90;;;;;;4955248;29;20074;-88
2021/08/04 11:17:15;;;;;;;1.90;0.85;;;20.10;99.90;;;;;;4936292;29;20051;-89
2021/08/04 11:20:03;;;;;;;0.08;0.08;;;19.70;99.90;;;;;;4934819;29;20038;-89
2021/08/04 11:22:31;;;;;;;0.00;0.00;;;19.30;99.90;;;;;;4935940;29;20103;-88
2021/08/04 11:24:58;;;;;;;0.10;0.10;;;19.40;99.90;;;;;;4936183;29;20031;-89
2021/08/04 11:27:25;;;;;;;0.00;0.00;;;19.50;99.90;;;;;;4935865;29;20030;-88
2021/08/04 11:29:53;;;;;;;0.15;0.15;;;19.80;99.90;;;;;;4934266;29;20147;-88
2021/08/04 11:32:22;;;;;;;0.20;0.20;;;19.40;99.90;;;;;;4919219;29;20059;-88
2021/08/04 11:34:48;;;;;;;0.00;0.00;;;19.30;99.90;;;;;;4935611;29;20094;-88
2021/08/04 11:37:14;;;;;;;0.00;0.00;;;19.90;99.90;;;;;;4936204;29;20445;-89
2021/08/04 11:40:00;;;;;;;0.00;0.00;;;20.50;99.90;;;;;;4935184;29;20032;-89
2021/08/04 11:42:27;;;;;;;;;;;21.00;99.90;;;;;;4935091;29;20089;-89
2021/08/04 11:44:53;;;;;;;0.00;0.00;;;20.80;99.90;;;;;;4918793;29;20381;-89
2021/08/04 11:47:20;;;;;;;0.20;0.10;;;19.70;99.90;;;;;;4934920;29;20053;-89
2021/08/04 11:49:49;;;;;;;0.00;0.00;;;19.10;99.90;;;;;;4934688;29;20032;-88
2021/08/04 11:52:16;;;;;;;0.20;0.20;;;19.30;99.90;;;;;;4918830;29;20032;-89
2021/08/04 11:54:59;;;;;;;0.00;0.00;;;19.10;99.90;;;;;;4935685;29;20400;-90
2021/08/04 11:57:25;;;;;;;0.00;0.00;;;19.00;99.90;;;;;;4935996;29;20453;-90
2021/08/04 12:00:19;;;;;;;0.10;0.10;;;18.70;99.90;;;;;;4935086;29;20027;-90
2021/08/04 12:02:46;;;;;;;0.00;0.00;;;18.10;99.90;;;;;;4916914;29;20028;-88
2021/08/04 12:05:13;;;;;;;0.00;0.00;;;18.20;99.90;;;;;;4918548;29;20028;-89
2021/08/04 12:07:41;;;;;;;0.15;0.15;;;18.60;99.90;;;;;;4935441;29;20055;-88
2021/08/04 12:10:13;;;;;;;0.00;0.00;;;19.60;99.90;;;;;;4933673;29;20066;-89
2021/08/04 12:12:41;;;;;;;0.00;0.00;;;20.30;99.90;;;;;;4943555;29;20023;-88
2021/08/04 12:15:23;;;;;;;0.00;0.00;;;21.70;99.90;;;;;;4954245;28;20053;-89
2021/08/04 12:17:57;;;;;;;0.05;0.05;;;22.00;99.90;;;;;;4954085;28;20058;-89
2021/08/04 12:20:25;;;;;;;0.13;0.13;;;20.90;99.90;;;;;;4953826;29;20485;-89
2021/08/04 12:23:00;;;;;;;0.00;0.00;;;21.00;99.90;;;;;;4953534;29;20228;-88
2021/08/04 12:25:28;;;;;;;0.00;0.00;;;21.60;1.00;;;;;;4953478;29;20034;-89
2021/08/04 12:27:56;;;;;;;0.00;0.00;;;22.10;3.40;;;;;;4953310;29;20023;-88
2021/08/04 12:30:25;;;;;;;0.00;0.00;;;22.70;1.00;;;;;;4953592;29;20035;-89
2021/08/04 12:33:23;;;;;;;0.00;0.00;;;22.80;99.90;;;;;;4953370;29;20034;-89
2021/08/04 12:38:43;;;;;;;0.00;0.00;;;23.10;99.90;;;;;;4953683;29;20035;-89
2021/08/04 12:41:11;;;;;;;1.45;0.55;;;24.40;99.90;;;;;;4953975;29;20507;-89
2021/08/04 12:43:40;;;;;;;0.52;0.13;;;24.70;99.90;;;;;;4952811;29;20418;-89
2021/08/04 12:46:08;;;;;;;0.00;0.00;;;23.90;99.90;;;;;;4953876;29;20755;-89
2021/08/04 12:48:39;;;;;;;0.00;0.00;;;23.80;99.90;;;;;;4954042;29;20491;-89
2021/08/04 12:51:09;;;;;;;0.00;0.00;;;22.80;99.90;;;;;;4936160;29;20023;-88
2021/08/04 12:53:37;;;;;;;0.10;0.10;;;22.00;99.90;;;;;;4969631;28;20047;-89
2021/08/04 12:56:07;;;;;;;0.10;0.10;;;21.50;99.90;;;;;;4955514;28;20516;-89
2021/08/04 12:58:54;;;;;;;0.00;0.00;;;21.30;99.90;;;;;;4972776;28;20042;-89
2021/08/04 13:01:22;;;;;;;0.00;0.00;;;21.90;99.90;;;;;;4972744;28;20573;-88